Alt de Santa Isabel, Puerto Rico
Current Conditions -  °F | °C
As of 4:45 PM on Sunday 23 Nov 2014 (Local Time) from TJIG Reporting Station
Broken Clouds Broken Clouds  
Wind Chill: 29°   Ceiling: 5500
Heat Index: 31°   Visibility: 10mi
Dew Point: 21°   Wind: 18mph
Humidity: 62%   Direction: 110°ESE
Pressure: 30"   Gusts: NA
Location:  17.9676°N, 66.4046°W
Report Text: TJIG 232045Z 11016KT 10SM SCT030 BKN055 29/21 A3000 RMK RY09 IN USE ATIS K
Loading
Personal Weather Stations






























Interactive Weather Map New forecast layout! Learn more

10-Day Weather Forecast

Advertisements
Track Severe Weather on mobile